If you wish to contribute or participate in the discussions about articles you are invited to join SKYbrary as a registered user

 Actions

Atka Airport

From SKYbrary Wiki

PAAK
Airport
ICAO: PAAK – IATA: AKB
Summary
Name Atka Airport
Region North America
Territory Alaska US.gif
Location , Alaska
Serving Atka
Elevation 17.374 m
57 ft
57 ft17.374 m
Type small airport
Coordinates 52° 13' 13.00" N, 174° 12' 23.00" W
Runways
Designator Length Width Surface ROPS
16/34 1372 m4,501.312 ft
30 m98.425 ft
ASPH-E /


METAR
Observation PAAK 250356Z AUTO 14024G32KT 1 1/2SM RA BR OVC006 06/06 A2905 RMK AO2 PK WND 14038/0306 VIS 1V2 CIG 005V009 SLP840 P0021 T00610056
Station Atka, Atka Airport
Date/Time 25 March 2019 03:56:00
Wind direction 140°
Wind speed 24 kts
Lowest cloud amount overcast
Temperature 6.1°C
Dew point 5.6°C
Humidity 96%
QNH hPa
Weather condition